TAF Text Data
IDs:
Format:
Raw Decoded Include METAR

Data at: 0629 UTC 24 May 2022

METAR for:KLBE (Latrobe/Palmer Rgnl, PA, US)
Text:KLBE 240615Z AUTO 00000KT 10SM CLR 12/11 A3018 RMK AO2
Temperature: 12.0°C ( 54°F)
Dewpoint: 11.0°C ( 52°F) [RH = 94%]
Pressure (altimeter):30.18 inches Hg (1022.1 mb)
Winds:calm
Visibility:10 or more sm (16+ km)
Ceiling:at least 12,000 feet AGL
Clouds:sky clear below 12,000 feet AGL
QC Flag:automated observation with no human augmentation

TAF for:KLBE (Latrobe/Palmer Rgnl, PA, US) issued at 0520 UTC 24 May 2022
Text:KLBE 240520Z 2406/2506 06005KT P6SM SCT090
Forecast period:0600 to 1400 UTC 24 May 2022
Forecast type:FROM: standard forecast or significant change
Winds:from the ENE (60 degrees) at 6 MPH (5 knots; 2.6 m/s)
Visibility:6 or more sm (10+ km)
Ceiling:at least 12,000 feet AGL
Clouds: scattered clouds at 9000 feet AGL
Text:FM241400 11008KT P6SM BKN035
Forecast period:1400 UTC 24 May 2022 to 0500 UTC 25 May 2022
Forecast type:FROM: standard forecast or significant change
Winds:from the ESE (110 degrees) at 9 MPH (8 knots; 4.1 m/s)
Visibility:6 or more sm (10+ km)
Ceiling:3500 feet AGL
Clouds: broken clouds at 3500 feet AGL
Text:FM250500 13010KT P6SM SKC
Forecast period:0500 to 0600 UTC 25 May 2022
Forecast type:FROM: standard forecast or significant change
Winds:from the SE (130 degrees) at 12 MPH (10 knots; 5.1 m/s)
Visibility:6 or more sm (10+ km)
Ceiling:at least 12,000 feet AGL
Clouds:clear skies